sensor_id;sensor_type;location;lat;lon;timestamp;P1;durP1;ratioP1;P2;durP2;ratioP2
64022;SDS011;50264;52.088;5.296;2023-05-07T00:00:57;30.5;;;25.7;;
64022;SDS011;50264;52.088;5.296;2023-05-07T00:04:10;27.7;;;24.7;;
64022;SDS011;50264;52.088;5.296;2023-05-07T00:05:46;27.6;;;24.7;;
64022;SDS011;50264;52.088;5.296;2023-05-07T00:07:22;24.3;;;21.6;;
64022;SDS011;50264;52.088;5.296;2023-05-07T00:10:35;27.1;;;24.4;;
64022;SDS011;50264;52.088;5.296;2023-05-07T00:12:11;25.0;;;22.5;;
64022;SDS011;50264;52.088;5.296;2023-05-07T00:13:47;27.1;;;24.2;;
64022;SDS011;50264;52.088;5.296;2023-05-07T00:17:01;29.2;;;23.5;;
64022;SDS011;50264;52.088;5.296;2023-05-07T00:18:38;24.0;;;21.5;;
64022;SDS011;50264;52.088;5.296;2023-05-07T00:20:15;24.7;;;20.8;;
64022;SDS011;50264;52.088;5.296;2023-05-07T00:21:51;27.5;;;22.9;;
64022;SDS011;50264;52.088;5.296;2023-05-07T00:25:03;28.3;;;22.8;;
64022;SDS011;50264;52.088;5.296;2023-05-07T00:26:40;28.0;;;25.1;;
64022;SDS011;50264;52.088;5.296;2023-05-07T00:28:17;28.6;;;24.8;;
64022;SDS011;50264;52.088;5.296;2023-05-07T00:31:32;28.2;;;24.2;;
64022;SDS011;50264;52.088;5.296;2023-05-07T00:33:08;27.0;;;23.0;;
64022;SDS011;50264;52.088;5.296;2023-05-07T00:34:44;24.0;;;21.4;;
64022;SDS011;50264;52.088;5.296;2023-05-07T00:37:57;27.1;;;20.11;;
64022;SDS011;50264;52.088;5.296;2023-05-07T00:39:33;24.0;;;21.5;;
64022;SDS011;50264;52.088;5.296;2023-05-07T00:41:10;23.2;;;20.8;;
64022;SDS011;50264;52.088;5.296;2023-05-07T00:42:47;22.4;;;20.11;;
64022;SDS011;50264;52.088;5.296;2023-05-07T00:46:00;22.4;;;20.0;;
64022;SDS011;50264;52.088;5.296;2023-05-07T00:47:37;22.6;;;18.91;;
64022;SDS011;50264;52.088;5.296;2023-05-07T00:49:14;22.8;;;20.41;;
64022;SDS011;50264;52.088;5.296;2023-05-07T00:52:28;22.7;;;20.3;;
64022;SDS011;50264;52.088;5.296;2023-05-07T00:54:05;24.1;;;21.4;;
64022;SDS011;50264;52.088;5.296;2023-05-07T00:55:43;23.1;;;20.3;;
64022;SDS011;50264;52.088;5.296;2023-05-07T00:58:57;24.9;;;21.9;;
64022;SDS011;50264;52.088;5.296;2023-05-07T01:00:33;30.6;;;22.7;;
64022;SDS011;50264;52.088;5.296;2023-05-07T01:02:09;23.1;;;20.7;;
64022;SDS011;50264;52.088;5.296;2023-05-07T01:03:46;24.7;;;22.2;;
64022;SDS011;50264;52.088;5.296;2023-05-07T01:07:02;21.0;;;18.8;;
64022;SDS011;50264;52.088;5.296;2023-05-07T01:08:39;22.3;;;20.0;;
64022;SDS011;50264;52.088;5.296;2023-05-07T01:10:17;23.9;;;21.3;;
64022;SDS011;50264;52.088;5.296;2023-05-07T01:13:32;22.9;;;20.5;;
64022;SDS011;50264;52.088;5.296;2023-05-07T01:15:10;24.7;;;22.1;;
64022;SDS011;50264;52.088;5.296;2023-05-07T01:16:47;22.1;;;19.7;;
64022;SDS011;50264;52.088;5.296;2023-05-07T01:18:24;20.7;;;18.7;;
64022;SDS011;50264;52.088;5.296;2023-05-07T01:21:40;21.4;;;19.2;;
64022;SDS011;50264;52.088;5.296;2023-05-07T01:23:22;20.2;;;17.3;;
64022;SDS011;50264;52.088;5.296;2023-05-07T01:24:59;19.11;;;17.3;;
64022;SDS011;50264;52.088;5.296;2023-05-07T01:28:13;19.8;;;17.8;;
64022;SDS011;50264;52.088;5.296;2023-05-07T01:29:49;21.0;;;18.7;;
64022;SDS011;50264;52.088;5.296;2023-05-07T01:31:26;25.3;;;20.8;;
64022;SDS011;50264;52.088;5.296;2023-05-07T01:33:03;20.5;;;18.5;;
64022;SDS011;50264;52.088;5.296;2023-05-07T01:36:24;20.7;;;18.8;;
64022;SDS011;50264;52.088;5.296;2023-05-07T01:38:02;26.5;;;19.8;;
64022;SDS011;50264;52.088;5.296;2023-05-07T01:39:39;22.3;;;19.91;;
64022;SDS011;50264;52.088;5.296;2023-05-07T01:42:54;22.4;;;20.0;;
64022;SDS011;50264;52.088;5.296;2023-05-07T01:44:30;22.8;;;19.2;;
64022;SDS011;50264;52.088;5.296;2023-05-07T01:46:06;19.61;;;17.61;;
64022;SDS011;50264;52.088;5.296;2023-05-07T01:47:44;22.2;;;19.91;;
64022;SDS011;50264;52.088;5.296;2023-05-07T01:50:56;19.8;;;17.7;;
64022;SDS011;50264;52.088;5.296;2023-05-07T01:52:34;23.0;;;19.5;;
64022;SDS011;50264;52.088;5.296;2023-05-07T01:54:11;19.41;;;17.61;;
64022;SDS011;50264;52.088;5.296;2023-05-07T01:57:24;20.3;;;18.41;;
64022;SDS011;50264;52.088;5.296;2023-05-07T01:59:00;22.9;;;20.6;;
64022;SDS011;50264;52.088;5.296;2023-05-07T02:00:36;26.8;;;21.6;;
64022;SDS011;50264;52.088;5.296;2023-05-07T02:03:49;23.8;;;21.4;;
64022;SDS011;50264;52.088;5.296;2023-05-07T02:05:25;23.0;;;20.9;;
64022;SDS011;50264;52.088;5.296;2023-05-07T02:07:02;25.3;;;22.6;;
64022;SDS011;50264;52.088;5.296;2023-05-07T02:08:38;18.7;;;16.8;;
64022;SDS011;50264;52.088;5.296;2023-05-07T02:11:50;19.0;;;17.2;;
64022;SDS011;50264;52.088;5.296;2023-05-07T02:13:28;21.3;;;19.11;;
64022;SDS011;50264;52.088;5.296;2023-05-07T02:15:05;21.0;;;18.8;;
64022;SDS011;50264;52.088;5.296;2023-05-07T02:18:18;21.9;;;18.41;;
64022;SDS011;50264;52.088;5.296;2023-05-07T02:19:55;20.2;;;18.2;;
64022;SDS011;50264;52.088;5.296;2023-05-07T02:21:31;16.11;;;14.1;;
64022;SDS011;50264;52.088;5.296;2023-05-07T02:24:44;16.9;;;15.2;;
64022;SDS011;50264;52.088;5.296;2023-05-07T02:26:20;17.3;;;15.5;;
64022;SDS011;50264;52.088;5.296;2023-05-07T02:27:56;18.3;;;16.4;;
64022;SDS011;50264;52.088;5.296;2023-05-07T02:29:32;18.8;;;16.8;;
64022;SDS011;50264;52.088;5.296;2023-05-07T02:32:45;18.8;;;16.9;;
64022;SDS011;50264;52.088;5.296;2023-05-07T02:34:21;18.11;;;16.4;;
64022;SDS011;50264;52.088;5.296;2023-05-07T02:35:57;18.5;;;16.2;;
64022;SDS011;50264;52.088;5.296;2023-05-07T02:39:17;18.11;;;15.2;;
64022;SDS011;50264;52.088;5.296;2023-05-07T02:40:53;19.0;;;17.0;;
64022;SDS011;50264;52.088;5.296;2023-05-07T02:42:30;22.4;;;18.8;;
64022;SDS011;50264;52.088;5.296;2023-05-07T02:44:06;21.7;;;17.11;;
64022;SDS011;50264;52.088;5.296;2023-05-07T02:47:20;22.4;;;18.91;;
64022;SDS011;50264;52.088;5.296;2023-05-07T02:48:56;21.0;;;18.8;;
64022;SDS011;50264;52.088;5.296;2023-05-07T02:50:32;25.2;;;20.41;;
64022;SDS011;50264;52.088;5.296;2023-05-07T02:53:44;21.5;;;19.11;;
64022;SDS011;50264;52.088;5.296;2023-05-07T02:55:21;20.5;;;18.41;;
64022;SDS011;50264;52.088;5.296;2023-05-07T02:56:57;20.11;;;18.2;;
64022;SDS011;50264;52.088;5.296;2023-05-07T03:00:10;22.3;;;19.91;;
64022;SDS011;50264;52.088;5.296;2023-05-07T03:01:47;18.0;;;16.3;;
64022;SDS011;50264;52.088;5.296;2023-05-07T03:03:24;20.5;;;18.61;;
64022;SDS011;50264;52.088;5.296;2023-05-07T03:06:36;19.7;;;17.7;;
64022;SDS011;50264;52.088;5.296;2023-05-07T03:08:12;22.9;;;20.6;;
64022;SDS011;50264;52.088;5.296;2023-05-07T03:09:48;26.3;;;23.4;;
64022;SDS011;50264;52.088;5.296;2023-05-07T03:11:24;23.6;;;20.5;;
64022;SDS011;50264;52.088;5.296;2023-05-07T03:14:38;24.0;;;20.7;;
64022;SDS011;50264;52.088;5.296;2023-05-07T03:16:14;19.11;;;17.11;;
64022;SDS011;50264;52.088;5.296;2023-05-07T03:17:51;24.2;;;20.3;;
64022;SDS011;50264;52.088;5.296;2023-05-07T03:21:03;21.5;;;19.5;;
64022;SDS011;50264;52.088;5.296;2023-05-07T03:22:39;22.3;;;20.2;;
64022;SDS011;50264;52.088;5.296;2023-05-07T03:24:16;24.7;;;20.3;;
64022;SDS011;50264;52.088;5.296;2023-05-07T03:27:29;22.1;;;19.5;;
64022;SDS011;50264;52.088;5.296;2023-05-07T03:29:05;21.6;;;19.41;;
64022;SDS011;50264;52.088;5.296;2023-05-07T03:30:41;24.5;;;22.2;;
64022;SDS011;50264;52.088;5.296;2023-05-07T03:32:17;19.91;;;18.0;;
64022;SDS011;50264;52.088;5.296;2023-05-07T03:35:31;17.2;;;15.5;;
64022;SDS011;50264;52.088;5.296;2023-05-07T03:37:08;18.3;;;16.5;;
64022;SDS011;50264;52.088;5.296;2023-05-07T03:38:45;23.0;;;18.3;;
64022;SDS011;50264;52.088;5.296;2023-05-07T03:41:57;23.6;;;21.2;;
64022;SDS011;50264;52.088;5.296;2023-05-07T03:43:34;25.5;;;22.8;;
64022;SDS011;50264;52.088;5.296;2023-05-07T03:45:10;25.9;;;23.1;;
64022;SDS011;50264;52.088;5.296;2023-05-07T03:48:23;27.9;;;25.0;;
64022;SDS011;50264;52.088;5.296;2023-05-07T03:49:59;27.9;;;25.2;;
64022;SDS011;50264;52.088;5.296;2023-05-07T03:51:35;26.0;;;23.6;;
64022;SDS011;50264;52.088;5.296;2023-05-07T03:53:12;20.11;;;18.11;;
64022;SDS011;50264;52.088;5.296;2023-05-07T03:56:24;26.6;;;19.61;;
64022;SDS011;50264;52.088;5.296;2023-05-07T03:58:00;22.9;;;20.41;;
64022;SDS011;50264;52.088;5.296;2023-05-07T03:59:36;20.6;;;18.41;;
64022;SDS011;50264;52.088;5.296;2023-05-07T04:02:49;25.1;;;22.4;;
64022;SDS011;50264;52.088;5.296;2023-05-07T04:04:25;25.1;;;22.7;;
64022;SDS011;50264;52.088;5.296;2023-05-07T04:06:01;27.5;;;23.7;;
64022;SDS011;50264;52.088;5.296;2023-05-07T04:09:14;29.6;;;25.2;;
64022;SDS011;50264;52.088;5.296;2023-05-07T04:10:54;26.5;;;23.7;;
64022;SDS011;50264;52.088;5.296;2023-05-07T04:12:31;24.9;;;22.5;;
64022;SDS011;50264;52.088;5.296;2023-05-07T04:14:07;26.1;;;23.6;;
64022;SDS011;50264;52.088;5.296;2023-05-07T04:17:19;23.6;;;21.2;;
64022;SDS011;50264;52.088;5.296;2023-05-07T04:18:55;28.1;;;25.1;;
64022;SDS011;50264;52.088;5.296;2023-05-07T04:20:33;25.7;;;23.4;;
64022;SDS011;50264;52.088;5.296;2023-05-07T04:23:48;30.9;;;24.2;;
64022;SDS011;50264;52.088;5.296;2023-05-07T04:25:25;28.2;;;25.2;;
64022;SDS011;50264;52.088;5.296;2023-05-07T04:27:01;27.2;;;24.4;;
64022;SDS011;50264;52.088;5.296;2023-05-07T04:30:14;26.5;;;23.8;;
64022;SDS011;50264;52.088;5.296;2023-05-07T04:31:50;27.6;;;24.8;;
64022;SDS011;50264;52.088;5.296;2023-05-07T04:33:26;29.1;;;26.2;;
64022;SDS011;50264;52.088;5.296;2023-05-07T04:35:02;28.7;;;25.8;;
64022;SDS011;50264;52.088;5.296;2023-05-07T04:38:17;24.5;;;21.9;;
64022;SDS011;50264;52.088;5.296;2023-05-07T04:39:53;23.0;;;20.41;;
64022;SDS011;50264;52.088;5.296;2023-05-07T04:41:29;23.0;;;20.6;;
64022;SDS011;50264;52.088;5.296;2023-05-07T04:44:41;29.5;;;26.3;;
64022;SDS011;50264;52.088;5.296;2023-05-07T04:46:19;26.6;;;22.8;;
64022;SDS011;50264;52.088;5.296;2023-05-07T04:47:55;25.6;;;23.1;;
64022;SDS011;50264;52.088;5.296;2023-05-07T04:51:08;25.9;;;23.3;;
64022;SDS011;50264;52.088;5.296;2023-05-07T04:52:44;24.3;;;21.8;;
64022;SDS011;50264;52.088;5.296;2023-05-07T04:54:20;22.3;;;19.91;;
64022;SDS011;50264;52.088;5.296;2023-05-07T04:55:56;24.7;;;22.2;;
64022;SDS011;50264;52.088;5.296;2023-05-07T04:59:09;22.5;;;19.91;;
64022;SDS011;50264;52.088;5.296;2023-05-07T05:00:46;24.1;;;21.7;;
64022;SDS011;50264;52.088;5.296;2023-05-07T05:02:22;25.5;;;22.8;;
64022;SDS011;50264;52.088;5.296;2023-05-07T05:05:34;24.4;;;21.8;;
64022;SDS011;50264;52.088;5.296;2023-05-07T05:07:10;26.3;;;23.5;;
64022;SDS011;50264;52.088;5.296;2023-05-07T05:08:46;26.3;;;23.5;;
64022;SDS011;50264;52.088;5.296;2023-05-07T05:11:59;25.8;;;23.1;;
64022;SDS011;50264;52.088;5.296;2023-05-07T05:13:35;26.7;;;24.0;;
64022;SDS011;50264;52.088;5.296;2023-05-07T05:15:11;21.1;;;19.0;;
64022;SDS011;50264;52.088;5.296;2023-05-07T05:18:24;20.5;;;18.41;;
64022;SDS011;50264;52.088;5.296;2023-05-07T05:20:00;22.4;;;20.2;;
64022;SDS011;50264;52.088;5.296;2023-05-07T05:21:36;23.8;;;21.2;;
64022;SDS011;50264;52.088;5.296;2023-05-07T05:23:12;22.7;;;20.41;;
64022;SDS011;50264;52.088;5.296;2023-05-07T05:26:25;21.5;;;19.41;;
64022;SDS011;50264;52.088;5.296;2023-05-07T05:28:01;25.3;;;20.6;;
64022;SDS011;50264;52.088;5.296;2023-05-07T05:29:37;20.2;;;18.2;;
64022;SDS011;50264;52.088;5.296;2023-05-07T05:32:49;24.9;;;22.3;;
64022;SDS011;50264;52.088;5.296;2023-05-07T05:34:25;25.3;;;22.8;;
64022;SDS011;50264;52.088;5.296;2023-05-07T05:36:02;26.1;;;23.3;;
64022;SDS011;50264;52.088;5.296;2023-05-07T05:39:15;31.1;;;27.9;;
64022;SDS011;50264;52.088;5.296;2023-05-07T05:40:53;31.9;;;26.5;;
64022;SDS011;50264;52.088;5.296;2023-05-07T05:42:29;29.6;;;26.6;;
64022;SDS011;50264;52.088;5.296;2023-05-07T05:44:06;31.7;;;26.1;;
64022;SDS011;50264;52.088;5.296;2023-05-07T05:47:18;30.4;;;23.8;;
64022;SDS011;50264;52.088;5.296;2023-05-07T05:48:54;28.9;;;21.8;;
64022;SDS011;50264;52.088;5.296;2023-05-07T05:50:30;31.1;;;24.9;;
64022;SDS011;50264;52.088;5.296;2023-05-07T05:53:42;25.7;;;22.9;;
64022;SDS011;50264;52.088;5.296;2023-05-07T05:55:19;29.1;;;24.7;;
64022;SDS011;50264;52.088;5.296;2023-05-07T05:56:56;28.7;;;24.3;;
64022;SDS011;50264;52.088;5.296;2023-05-07T06:01:46;27.8;;;24.4;;
64022;SDS011;50264;52.088;5.296;2023-05-07T06:03:22;29.7;;;26.5;;
64022;SDS011;50264;52.088;5.296;2023-05-07T06:04:58;32.5;;;26.9;;
64022;SDS011;50264;52.088;5.296;2023-05-07T06:08:11;30.7;;;26.1;;
64022;SDS011;50264;52.088;5.296;2023-05-07T06:09:46;36.81;;;31.2;;
64022;SDS011;50264;52.088;5.296;2023-05-07T06:11:23;39.0;;;32.3;;
64022;SDS011;50264;52.088;5.296;2023-05-07T06:14:35;33.21;;;29.8;;
64022;SDS011;50264;52.088;5.296;2023-05-07T06:16:11;32.71;;;28.3;;
64022;SDS011;50264;52.088;5.296;2023-05-07T06:17:48;35.81;;;32.0;;
64022;SDS011;50264;52.088;5.296;2023-05-07T06:21:01;29.1;;;26.0;;
64022;SDS011;50264;52.088;5.296;2023-05-07T06:22:38;32.21;;;27.4;;
64022;SDS011;50264;52.088;5.296;2023-05-07T06:24:14;29.6;;;26.5;;
64022;SDS011;50264;52.088;5.296;2023-05-07T06:27:27;34.21;;;25.6;;
64022;SDS011;50264;52.088;5.296;2023-05-07T06:29:04;36.31;;;31.0;;
64022;SDS011;50264;52.088;5.296;2023-05-07T06:30:40;30.2;;;27.0;;
64022;SDS011;50264;52.088;5.296;2023-05-07T06:32:16;31.5;;;25.2;;
64022;SDS011;50264;52.088;5.296;2023-05-07T06:37:07;33.4;;;27.9;;
64022;SDS011;50264;52.088;5.296;2023-05-07T06:41:55;31.4;;;26.4;;
64022;SDS011;50264;52.088;5.296;2023-05-07T06:43:32;30.8;;;24.7;;
64022;SDS011;50264;52.088;5.296;2023-05-07T06:45:09;29.9;;;26.0;;
64022;SDS011;50264;52.088;5.296;2023-05-07T06:48:21;29.9;;;26.0;;
64022;SDS011;50264;52.088;5.296;2023-05-07T06:49:58;29.3;;;26.2;;
64022;SDS011;50264;52.088;5.296;2023-05-07T06:51:34;30.0;;;25.2;;
64022;SDS011;50264;52.088;5.296;2023-05-07T06:53:10;28.9;;;25.8;;
64022;SDS011;50264;52.088;5.296;2023-05-07T06:56:22;34.4;;;28.1;;
64022;SDS011;50264;52.088;5.296;2023-05-07T06:57:58;33.0;;;29.1;;
64022;SDS011;50264;52.088;5.296;2023-05-07T06:59:35;27.4;;;24.4;;
64022;SDS011;50264;52.088;5.296;2023-05-07T07:02:48;28.0;;;25.2;;
64022;SDS011;50264;52.088;5.296;2023-05-07T07:04:23;31.8;;;26.6;;
64022;SDS011;50264;52.088;5.296;2023-05-07T07:06:00;26.3;;;23.5;;
64022;SDS011;50264;52.088;5.296;2023-05-07T07:09:12;30.5;;;26.5;;
64022;SDS011;50264;52.088;5.296;2023-05-07T07:10:48;29.4;;;26.3;;
64022;SDS011;50264;52.088;5.296;2023-05-07T07:12:25;30.2;;;26.1;;
64022;SDS011;50264;52.088;5.296;2023-05-07T07:14:01;31.4;;;27.6;;
64022;SDS011;50264;52.088;5.296;2023-05-07T07:17:13;29.0;;;26.2;;
64022;SDS011;50264;52.088;5.296;2023-05-07T07:18:49;29.3;;;26.2;;
64022;SDS011;50264;52.088;5.296;2023-05-07T07:20:27;29.2;;;26.2;;
64022;SDS011;50264;52.088;5.296;2023-05-07T07:23:39;35.5;;;29.2;;
64022;SDS011;50264;52.088;5.296;2023-05-07T07:25:15;30.6;;;27.1;;
64022;SDS011;50264;52.088;5.296;2023-05-07T07:26:52;29.8;;;26.8;;
64022;SDS011;50264;52.088;5.296;2023-05-07T07:30:06;30.2;;;27.2;;
64022;SDS011;50264;52.088;5.296;2023-05-07T07:31:43;29.0;;;26.0;;
64022;SDS011;50264;52.088;5.296;2023-05-07T07:33:19;32.71;;;29.2;;
64022;SDS011;50264;52.088;5.296;2023-05-07T07:34:55;35.0;;;28.6;;
64022;SDS011;50264;52.088;5.296;2023-05-07T07:38:07;33.21;;;28.5;;
64022;SDS011;50264;52.088;5.296;2023-05-07T07:39:43;31.8;;;27.1;;
64022;SDS011;50264;52.088;5.296;2023-05-07T07:41:19;33.6;;;28.8;;
64022;SDS011;50264;52.088;5.296;2023-05-07T07:44:33;31.7;;;27.4;;
64022;SDS011;50264;52.088;5.296;2023-05-07T07:46:10;29.9;;;26.8;;
64022;SDS011;50264;52.088;5.296;2023-05-07T07:47:48;32.8;;;26.5;;
64022;SDS011;50264;52.088;5.296;2023-05-07T07:51:00;33.1;;;27.8;;
64022;SDS011;50264;52.088;5.296;2023-05-07T07:52:37;30.3;;;27.2;;
64022;SDS011;50264;52.088;5.296;2023-05-07T07:54:14;29.4;;;26.2;;
64022;SDS011;50264;52.088;5.296;2023-05-07T07:55:50;31.8;;;28.4;;
64022;SDS011;50264;52.088;5.296;2023-05-07T07:59:03;30.1;;;26.9;;
64022;SDS011;50264;52.088;5.296;2023-05-07T08:00:39;30.1;;;27.0;;
64022;SDS011;50264;52.088;5.296;2023-05-07T08:02:15;37.4;;;28.0;;
64022;SDS011;50264;52.088;5.296;2023-05-07T08:05:29;30.0;;;26.8;;
64022;SDS011;50264;52.088;5.296;2023-05-07T08:07:06;30.0;;;26.7;;
64022;SDS011;50264;52.088;5.296;2023-05-07T08:08:42;31.3;;;27.9;;
64022;SDS011;50264;52.088;5.296;2023-05-07T08:11:56;30.0;;;26.7;;
64022;SDS011;50264;52.088;5.296;2023-05-07T08:13:33;30.2;;;26.9;;
64022;SDS011;50264;52.088;5.296;2023-05-07T08:15:10;32.8;;;28.1;;
64022;SDS011;50264;52.088;5.296;2023-05-07T08:16:46;28.9;;;25.9;;
64022;SDS011;50264;52.088;5.296;2023-05-07T08:20:01;29.0;;;26.0;;
64022;SDS011;50264;52.088;5.296;2023-05-07T08:21:38;28.1;;;25.3;;
64022;SDS011;50264;52.088;5.296;2023-05-07T08:23:15;27.7;;;24.7;;
64022;SDS011;50264;52.088;5.296;2023-05-07T08:26:27;35.1;;;29.1;;
64022;SDS011;50264;52.088;5.296;2023-05-07T08:28:04;30.2;;;27.1;;
64022;SDS011;50264;52.088;5.296;2023-05-07T08:29:41;31.8;;;28.2;;
64022;SDS011;50264;52.088;5.296;2023-05-07T08:32:53;32.3;;;28.9;;
64022;SDS011;50264;52.088;5.296;2023-05-07T08:34:29;31.6;;;28.2;;
64022;SDS011;50264;52.088;5.296;2023-05-07T08:36:05;31.3;;;28.0;;
64022;SDS011;50264;52.088;5.296;2023-05-07T08:37:41;32.9;;;27.3;;
64022;SDS011;50264;52.088;5.296;2023-05-07T08:40:55;33.71;;;30.1;;
64022;SDS011;50264;52.088;5.296;2023-05-07T08:42:32;35.21;;;30.1;;
64022;SDS011;50264;52.088;5.296;2023-05-07T08:44:11;36.5;;;31.6;;
64022;SDS011;50264;52.088;5.296;2023-05-07T08:47:32;33.1;;;29.5;;
64022;SDS011;50264;52.088;5.296;2023-05-07T08:49:15;32.8;;;28.6;;
64022;SDS011;50264;52.088;5.296;2023-05-07T08:50:52;36.9;;;30.8;;
64022;SDS011;50264;52.088;5.296;2023-05-07T08:52:29;38.31;;;29.9;;
64022;SDS011;50264;52.088;5.296;2023-05-07T08:55:43;36.1;;;29.8;;
64022;SDS011;50264;52.088;5.296;2023-05-07T08:57:21;34.1;;;29.4;;
64022;SDS011;50264;52.088;5.296;2023-05-07T08:58:57;36.0;;;32.1;;
64022;SDS011;50264;52.088;5.296;2023-05-07T09:02:13;32.8;;;29.0;;
64022;SDS011;50264;52.088;5.296;2023-05-07T09:03:49;32.71;;;26.5;;
64022;SDS011;50264;52.088;5.296;2023-05-07T09:05:28;32.1;;;28.8;;
64022;SDS011;50264;52.088;5.296;2023-05-07T09:07:04;33.0;;;29.6;;
64022;SDS011;50264;52.088;5.296;2023-05-07T09:10:25;30.9;;;27.9;;
64022;SDS011;50264;52.088;5.296;2023-05-07T09:12:02;31.6;;;28.3;;
64022;SDS011;50264;52.088;5.296;2023-05-07T09:13:39;29.4;;;26.2;;
64022;SDS011;50264;52.088;5.296;2023-05-07T09:16:51;31.1;;;27.7;;
64022;SDS011;50264;52.088;5.296;2023-05-07T09:18:28;32.9;;;28.9;;
64022;SDS011;50264;52.088;5.296;2023-05-07T09:21:42;33.8;;;27.6;;
64022;SDS011;50264;52.088;5.296;2023-05-07T09:24:57;26.8;;;24.1;;
64022;SDS011;50264;52.088;5.296;2023-05-07T09:26:33;25.3;;;22.7;;
64022;SDS011;50264;52.088;5.296;2023-05-07T09:28:10;21.9;;;19.61;;
64022;SDS011;50264;52.088;5.296;2023-05-07T09:31:23;18.41;;;16.4;;
64022;SDS011;50264;52.088;5.296;2023-05-07T09:33:00;23.9;;;17.61;;
64022;SDS011;50264;52.088;5.296;2023-05-07T09:34:40;22.5;;;17.8;;
64022;SDS011;50264;52.088;5.296;2023-05-07T09:36:17;20.11;;;14.9;;
64022;SDS011;50264;52.088;5.296;2023-05-07T09:39:40;15.3;;;13.5;;
64022;SDS011;50264;52.088;5.296;2023-05-07T09:41:18;13.1;;;10.8;;
64022;SDS011;50264;52.088;5.296;2023-05-07T09:42:55;13.0;;;10.7;;
64022;SDS011;50264;52.088;5.296;2023-05-07T09:46:11;15.3;;;12.4;;
64022;SDS011;50264;52.088;5.296;2023-05-07T09:47:50;13.8;;;11.5;;
64022;SDS011;50264;52.088;5.296;2023-05-07T09:49:32;12.6;;;10.7;;
64022;SDS011;50264;52.088;5.296;2023-05-07T09:51:15;13.5;;;10.7;;
64022;SDS011;50264;52.088;5.296;2023-05-07T09:53:05;14.3;;;10.0;;
64022;SDS011;50264;52.088;5.296;2023-05-07T09:56:22;12.1;;;10.5;;
64022;SDS011;50264;52.088;5.296;2023-05-07T09:58:00;15.9;;;11.3;;
64022;SDS011;50264;52.088;5.296;2023-05-07T09:59:40;13.1;;;10.3;;
64022;SDS011;50264;52.088;5.296;2023-05-07T10:02:57;12.1;;;10.9;;
64022;SDS011;50264;52.088;5.296;2023-05-07T10:04:35;15.9;;;13.5;;
64022;SDS011;50264;52.088;5.296;2023-05-07T10:06:12;14.1;;;12.7;;
64022;SDS011;50264;52.088;5.296;2023-05-07T10:07:50;15.9;;;13.4;;
64022;SDS011;50264;52.088;5.296;2023-05-07T10:11:06;18.11;;;14.0;;
64022;SDS011;50264;52.088;5.296;2023-05-07T10:12:42;17.7;;;14.0;;
64022;SDS011;50264;52.088;5.296;2023-05-07T10:14:19;17.8;;;14.2;;
64022;SDS011;50264;52.088;5.296;2023-05-07T10:17:35;18.91;;;16.2;;
64022;SDS011;50264;52.088;5.296;2023-05-07T10:19:11;21.1;;;17.2;;
64022;SDS011;50264;52.088;5.296;2023-05-07T10:20:48;20.6;;;16.5;;
64022;SDS011;50264;52.088;5.296;2023-05-07T10:22:28;20.41;;;17.11;;
64022;SDS011;50264;52.088;5.296;2023-05-07T10:25:55;24.3;;;17.61;;
64022;SDS011;50264;52.088;5.296;2023-05-07T10:27:33;20.9;;;18.61;;
64022;SDS011;50264;52.088;5.296;2023-05-07T10:29:12;22.4;;;19.3;;
64022;SDS011;50264;52.088;5.296;2023-05-07T10:31:06;21.0;;;18.7;;
64022;SDS011;50264;52.088;5.296;2023-05-07T10:33:01;31.1;;;20.7;;
64022;SDS011;50264;52.088;5.296;2023-05-07T10:36:21;21.7;;;19.41;;
64022;SDS011;50264;52.088;5.296;2023-05-07T10:37:59;20.9;;;18.91;;
64022;SDS011;50264;52.088;5.296;2023-05-07T10:39:35;25.5;;;19.41;;
64022;SDS011;50264;52.088;5.296;2023-05-07T10:41:12;20.8;;;17.7;;
64022;SDS011;50264;52.088;5.296;2023-05-07T10:44:30;22.1;;;18.5;;
64022;SDS011;50264;52.088;5.296;2023-05-07T10:46:10;21.7;;;19.41;;
64022;SDS011;50264;52.088;5.296;2023-05-07T10:48:05;24.5;;;19.61;;
64022;SDS011;50264;52.088;5.296;2023-05-07T10:50:51;23.6;;;21.2;;
64022;SDS011;50264;52.088;5.296;2023-05-07T10:53:26;20.8;;;18.7;;
64022;SDS011;50264;52.088;5.296;2023-05-07T10:55:32;22.2;;;19.91;;
64022;SDS011;50264;52.088;5.296;2023-05-07T10:57:41;26.9;;;19.2;;
64022;SDS011;50264;52.088;5.296;2023-05-07T10:59:30;24.2;;;20.2;;
64022;SDS011;50264;52.088;5.296;2023-05-07T11:01:10;23.1;;;20.7;;
64022;SDS011;50264;52.088;5.296;2023-05-07T11:03:18;24.0;;;19.7;;
64022;SDS011;50264;52.088;5.296;2023-05-07T11:05:18;24.0;;;21.1;;
64022;SDS011;50264;52.088;5.296;2023-05-07T11:07:24;22.7;;;20.3;;
64022;SDS011;50264;52.088;5.296;2023-05-07T11:09:05;20.11;;;18.0;;
64022;SDS011;50264;52.088;5.296;2023-05-07T11:10:57;24.1;;;18.8;;
64022;SDS011;50264;52.088;5.296;2023-05-07T11:12:51;22.3;;;19.91;;
64022;SDS011;50264;52.088;5.296;2023-05-07T11:14:44;25.4;;;19.11;;
64022;SDS011;50264;52.088;5.296;2023-05-07T11:18:00;21.3;;;18.61;;
64022;SDS011;50264;52.088;5.296;2023-05-07T11:19:52;21.6;;;19.3;;
64022;SDS011;50264;52.088;5.296;2023-05-07T11:21:32;21.0;;;18.8;;
64022;SDS011;50264;52.088;5.296;2023-05-07T11:23:39;21.8;;;18.91;;
64022;SDS011;50264;52.088;5.296;2023-05-07T11:25:35;23.6;;;19.3;;
64022;SDS011;50264;52.088;5.296;2023-05-07T11:27:12;20.8;;;18.61;;
64022;SDS011;50264;52.088;5.296;2023-05-07T11:30:27;21.6;;;19.3;;
64022;SDS011;50264;52.088;5.296;2023-05-07T11:32:04;20.7;;;18.11;;
64022;SDS011;50264;52.088;5.296;2023-05-07T11:33:41;20.5;;;18.5;;
64022;SDS011;50264;52.088;5.296;2023-05-07T11:36:59;19.41;;;17.2;;
64022;SDS011;50264;52.088;5.296;2023-05-07T11:38:36;19.8;;;17.7;;
64022;SDS011;50264;52.088;5.296;2023-05-07T11:40:14;22.3;;;17.5;;
64022;SDS011;50264;52.088;5.296;2023-05-07T11:41:50;19.8;;;16.9;;
64022;SDS011;50264;52.088;5.296;2023-05-07T11:45:04;22.8;;;16.5;;
64022;SDS011;50264;52.088;5.296;2023-05-07T11:46:43;20.2;;;18.0;;
64022;SDS011;50264;52.088;5.296;2023-05-07T11:48:20;20.2;;;16.3;;
64022;SDS011;50264;52.088;5.296;2023-05-07T11:51:41;19.5;;;17.2;;
64022;SDS011;50264;52.088;5.296;2023-05-07T11:53:18;20.11;;;17.91;;
64022;SDS011;50264;52.088;5.296;2023-05-07T11:54:56;20.11;;;17.91;;
64022;SDS011;50264;52.088;5.296;2023-05-07T11:56:34;18.5;;;15.9;;
64022;SDS011;50264;52.088;5.296;2023-05-07T11:59:56;22.6;;;16.61;;
64022;SDS011;50264;52.088;5.296;2023-05-07T12:01:35;18.91;;;16.9;;
64022;SDS011;50264;52.088;5.296;2023-05-07T12:03:11;21.0;;;17.2;;
64022;SDS011;50264;52.088;5.296;2023-05-07T12:04:47;23.6;;;19.2;;
64022;SDS011;50264;52.088;5.296;2023-05-07T12:08:00;19.41;;;17.2;;
64022;SDS011;50264;52.088;5.296;2023-05-07T12:09:36;19.7;;;15.3;;
64022;SDS011;50264;52.088;5.296;2023-05-07T12:11:14;19.3;;;15.0;;
64022;SDS011;50264;52.088;5.296;2023-05-07T12:14:28;17.41;;;14.2;;
64022;SDS011;50264;52.088;5.296;2023-05-07T12:16:04;17.5;;;15.6;;
64022;SDS011;50264;52.088;5.296;2023-05-07T12:17:42;22.2;;;15.9;;
64022;SDS011;50264;52.088;5.296;2023-05-07T12:20:56;23.8;;;15.7;;
64022;SDS011;50264;52.088;5.296;2023-05-07T12:22:34;23.2;;;15.5;;
64022;SDS011;50264;52.088;5.296;2023-05-07T12:24:11;20.41;;;17.5;;
64022;SDS011;50264;52.088;5.296;2023-05-07T12:25:49;18.91;;;16.9;;
64022;SDS011;50264;52.088;5.296;2023-05-07T12:29:03;16.8;;;15.2;;
64022;SDS011;50264;52.088;5.296;2023-05-07T12:30:40;14.9;;;11.2;;
64022;SDS011;50264;52.088;5.296;2023-05-07T12:32:19;17.41;;;15.5;;
64022;SDS011;50264;52.088;5.296;2023-05-07T12:35:36;18.5;;;15.3;;
64022;SDS011;50264;52.088;5.296;2023-05-07T12:37:16;21.2;;;16.3;;
64022;SDS011;50264;52.088;5.296;2023-05-07T12:38:53;19.0;;;14.6;;
64022;SDS011;50264;52.088;5.296;2023-05-07T12:40:37;16.5;;;13.7;;
64022;SDS011;50264;52.088;5.296;2023-05-07T12:43:52;21.6;;;15.4;;